sensor_id;sensor_type;location;lat;lon;timestamp;pressure;altitude;pressure_sealevel;temperature
20092;BMP180;10205;49.678;6.560;2023-07-31T00:00:48;99831.00;;;24.50
20092;BMP180;10205;49.678;6.560;2023-07-31T00:03:16;99834.00;;;24.50
20092;BMP180;10205;49.678;6.560;2023-07-31T00:05:45;99827.00;;;24.50
20092;BMP180;10205;49.678;6.560;2023-07-31T00:08:12;99832.00;;;24.50
20092;BMP180;10205;49.678;6.560;2023-07-31T00:10:40;99826.00;;;24.50
20092;BMP180;10205;49.678;6.560;2023-07-31T00:13:07;99826.00;;;24.50
20092;BMP180;10205;49.678;6.560;2023-07-31T00:15:34;99831.00;;;24.50
20092;BMP180;10205;49.678;6.560;2023-07-31T00:18:03;99824.00;;;24.50
20092;BMP180;10205;49.678;6.560;2023-07-31T00:20:31;99813.00;;;24.50
20092;BMP180;10205;49.678;6.560;2023-07-31T00:22:59;99825.00;;;24.50
20092;BMP180;10205;49.678;6.560;2023-07-31T00:25:27;99810.00;;;24.40
20092;BMP180;10205;49.678;6.560;2023-07-31T00:27:54;99755.00;;;24.40
20092;BMP180;10205;49.678;6.560;2023-07-31T00:30:24;99809.00;;;24.40
20092;BMP180;10205;49.678;6.560;2023-07-31T00:32:53;99818.00;;;24.40
20092;BMP180;10205;49.678;6.560;2023-07-31T00:35:21;99805.00;;;24.40
20092;BMP180;10205;49.678;6.560;2023-07-31T00:37:49;99743.00;;;24.40
20092;BMP180;10205;49.678;6.560;2023-07-31T00:40:17;99808.00;;;24.40
20092;BMP180;10205;49.678;6.560;2023-07-31T00:42:44;99806.00;;;24.40
20092;BMP180;10205;49.678;6.560;2023-07-31T00:45:12;99807.00;;;24.40
20092;BMP180;10205;49.678;6.560;2023-07-31T00:47:39;99788.00;;;24.30
20092;BMP180;10205;49.678;6.560;2023-07-31T00:50:08;99808.00;;;24.30
20092;BMP180;10205;49.678;6.560;2023-07-31T00:52:37;99787.00;;;24.30
20092;BMP180;10205;49.678;6.560;2023-07-31T00:55:05;99801.00;;;24.30
20092;BMP180;10205;49.678;6.560;2023-07-31T00:57:34;99786.00;;;24.30
20092;BMP180;10205;49.678;6.560;2023-07-31T01:00:04;99751.00;;;24.30
20092;BMP180;10205;49.678;6.560;2023-07-31T01:02:32;99795.00;;;24.30
20092;BMP180;10205;49.678;6.560;2023-07-31T01:05:01;99781.00;;;24.20
20092;BMP180;10205;49.678;6.560;2023-07-31T01:07:42;99789.00;;;24.20
20092;BMP180;10205;49.678;6.560;2023-07-31T01:10:20;99785.00;;;24.20
20092;BMP180;10205;49.678;6.560;2023-07-31T01:12:50;99740.00;;;24.20
20092;BMP180;10205;49.678;6.560;2023-07-31T01:15:18;99773.00;;;24.20
20092;BMP180;10205;49.678;6.560;2023-07-31T01:17:46;99780.00;;;24.20
20092;BMP180;10205;49.678;6.560;2023-07-31T01:20:20;99767.00;;;24.20
20092;BMP180;10205;49.678;6.560;2023-07-31T01:26:05;99771.00;;;24.10
20092;BMP180;10205;49.678;6.560;2023-07-31T01:28:49;99775.00;;;24.10
20092;BMP180;10205;49.678;6.560;2023-07-31T01:31:23;99780.00;;;24.10
20092;BMP180;10205;49.678;6.560;2023-07-31T01:33:53;99778.00;;;24.00
20092;BMP180;10205;49.678;6.560;2023-07-31T01:36:21;99775.00;;;24.00
20092;BMP180;10205;49.678;6.560;2023-07-31T01:38:49;99762.00;;;24.00
20092;BMP180;10205;49.678;6.560;2023-07-31T01:41:18;99722.00;;;24.00
20092;BMP180;10205;49.678;6.560;2023-07-31T01:43:46;99764.00;;;24.00
20092;BMP180;10205;49.678;6.560;2023-07-31T01:46:13;99747.00;;;24.00
20092;BMP180;10205;49.678;6.560;2023-07-31T01:48:41;99745.00;;;24.00
20092;BMP180;10205;49.678;6.560;2023-07-31T01:51:09;99731.00;;;23.90
20092;BMP180;10205;49.678;6.560;2023-07-31T01:53:36;99736.00;;;23.90
20092;BMP180;10205;49.678;6.560;2023-07-31T01:56:04;99738.00;;;23.90
20092;BMP180;10205;49.678;6.560;2023-07-31T01:58:33;99744.00;;;23.90
20092;BMP180;10205;49.678;6.560;2023-07-31T02:01:01;99742.00;;;23.90
20092;BMP180;10205;49.678;6.560;2023-07-31T02:03:29;99737.00;;;23.90
20092;BMP180;10205;49.678;6.560;2023-07-31T02:05:56;99741.00;;;23.80
20092;BMP180;10205;49.678;6.560;2023-07-31T02:08:24;99741.00;;;23.80
20092;BMP180;10205;49.678;6.560;2023-07-31T02:10:52;99705.00;;;23.80
20092;BMP180;10205;49.678;6.560;2023-07-31T02:13:19;99736.00;;;23.80
20092;BMP180;10205;49.678;6.560;2023-07-31T02:15:48;99737.00;;;23.80
20092;BMP180;10205;49.678;6.560;2023-07-31T02:18:16;99734.00;;;23.70
20092;BMP180;10205;49.678;6.560;2023-07-31T02:20:43;99736.00;;;23.70
20092;BMP180;10205;49.678;6.560;2023-07-31T02:23:16;99727.00;;;23.70
20092;BMP180;10205;49.678;6.560;2023-07-31T02:25:44;99721.00;;;23.70
20092;BMP180;10205;49.678;6.560;2023-07-31T02:28:12;99730.00;;;23.60
20092;BMP180;10205;49.678;6.560;2023-07-31T02:30:39;99726.00;;;23.60
20092;BMP180;10205;49.678;6.560;2023-07-31T02:33:08;99667.00;;;23.60
20092;BMP180;10205;49.678;6.560;2023-07-31T02:35:36;99720.00;;;23.60
20092;BMP180;10205;49.678;6.560;2023-07-31T02:38:04;99708.00;;;23.60
20092;BMP180;10205;49.678;6.560;2023-07-31T02:40:31;99719.00;;;23.60
20092;BMP180;10205;49.678;6.560;2023-07-31T02:42:59;99677.00;;;23.60
20092;BMP180;10205;49.678;6.560;2023-07-31T02:45:26;99726.00;;;23.60
20092;BMP180;10205;49.678;6.560;2023-07-31T02:47:53;99736.00;;;23.50
20092;BMP180;10205;49.678;6.560;2023-07-31T02:50:23;99721.00;;;23.50
20092;BMP180;10205;49.678;6.560;2023-07-31T02:52:50;99730.00;;;23.50
20092;BMP180;10205;49.678;6.560;2023-07-31T02:55:18;99732.00;;;23.50
20092;BMP180;10205;49.678;6.560;2023-07-31T02:57:45;99706.00;;;23.50
20092;BMP180;10205;49.678;6.560;2023-07-31T03:00:13;99701.00;;;23.50
20092;BMP180;10205;49.678;6.560;2023-07-31T03:02:41;99728.00;;;23.50
20092;BMP180;10205;49.678;6.560;2023-07-31T03:05:08;99725.00;;;23.40
20092;BMP180;10205;49.678;6.560;2023-07-31T03:07:38;99706.00;;;23.40
20092;BMP180;10205;49.678;6.560;2023-07-31T03:10:07;99723.00;;;23.40
20092;BMP180;10205;49.678;6.560;2023-07-31T03:12:34;99721.00;;;23.30
20092;BMP180;10205;49.678;6.560;2023-07-31T03:15:02;99731.00;;;23.30
20092;BMP180;10205;49.678;6.560;2023-07-31T03:17:30;99727.00;;;23.30
20092;BMP180;10205;49.678;6.560;2023-07-31T03:19:57;99727.00;;;23.30
20092;BMP180;10205;49.678;6.560;2023-07-31T03:22:25;99721.00;;;23.20
20092;BMP180;10205;49.678;6.560;2023-07-31T03:24:56;99719.00;;;23.20
20092;BMP180;10205;49.678;6.560;2023-07-31T03:27:24;99715.00;;;23.20
20092;BMP180;10205;49.678;6.560;2023-07-31T03:29:51;99712.00;;;23.20
20092;BMP180;10205;49.678;6.560;2023-07-31T03:32:21;99695.00;;;23.20
20092;BMP180;10205;49.678;6.560;2023-07-31T03:34:49;99712.00;;;23.20
20092;BMP180;10205;49.678;6.560;2023-07-31T03:37:17;99701.00;;;23.10
20092;BMP180;10205;49.678;6.560;2023-07-31T03:39:44;99693.00;;;23.10
20092;BMP180;10205;49.678;6.560;2023-07-31T03:42:14;99684.00;;;23.10
20092;BMP180;10205;49.678;6.560;2023-07-31T03:44:41;99682.00;;;23.00
20092;BMP180;10205;49.678;6.560;2023-07-31T03:47:09;99678.00;;;23.00
20092;BMP180;10205;49.678;6.560;2023-07-31T03:49:37;99676.00;;;23.00
20092;BMP180;10205;49.678;6.560;2023-07-31T03:52:05;99684.00;;;23.00
20092;BMP180;10205;49.678;6.560;2023-07-31T03:54:33;99679.00;;;23.00
20092;BMP180;10205;49.678;6.560;2023-07-31T03:57:00;99683.00;;;23.00
20092;BMP180;10205;49.678;6.560;2023-07-31T03:59:29;99676.00;;;22.90
20092;BMP180;10205;49.678;6.560;2023-07-31T04:01:57;99635.00;;;22.90
20092;BMP180;10205;49.678;6.560;2023-07-31T04:04:25;99675.00;;;22.90
20092;BMP180;10205;49.678;6.560;2023-07-31T04:06:52;99677.00;;;22.90
20092;BMP180;10205;49.678;6.560;2023-07-31T04:09:20;99665.00;;;22.90
20092;BMP180;10205;49.678;6.560;2023-07-31T04:11:47;99678.00;;;22.90
20092;BMP180;10205;49.678;6.560;2023-07-31T04:14:16;99676.00;;;22.90
20092;BMP180;10205;49.678;6.560;2023-07-31T04:16:45;99671.00;;;22.80
20092;BMP180;10205;49.678;6.560;2023-07-31T04:19:13;99645.00;;;22.80
20092;BMP180;10205;49.678;6.560;2023-07-31T04:21:42;99647.00;;;22.80
20092;BMP180;10205;49.678;6.560;2023-07-31T04:24:10;99666.00;;;22.70
20092;BMP180;10205;49.678;6.560;2023-07-31T04:26:38;99672.00;;;22.70
20092;BMP180;10205;49.678;6.560;2023-07-31T04:29:05;99660.00;;;22.70
20092;BMP180;10205;49.678;6.560;2023-07-31T04:31:34;99653.00;;;22.70
20092;BMP180;10205;49.678;6.560;2023-07-31T04:34:04;99660.00;;;22.70
20092;BMP180;10205;49.678;6.560;2023-07-31T04:36:32;99682.00;;;22.70
20092;BMP180;10205;49.678;6.560;2023-07-31T04:39:02;99660.00;;;22.70
20092;BMP180;10205;49.678;6.560;2023-07-31T04:41:30;99660.00;;;22.60
20092;BMP180;10205;49.678;6.560;2023-07-31T04:43:57;99647.00;;;22.60
20092;BMP180;10205;49.678;6.560;2023-07-31T04:46:25;99653.00;;;22.60
20092;BMP180;10205;49.678;6.560;2023-07-31T04:48:52;99594.00;;;22.60
20092;BMP180;10205;49.678;6.560;2023-07-31T04:51:21;99648.00;;;22.60
20092;BMP180;10205;49.678;6.560;2023-07-31T04:53:49;99656.00;;;22.60
20092;BMP180;10205;49.678;6.560;2023-07-31T04:56:17;99634.00;;;22.60
20092;BMP180;10205;49.678;6.560;2023-07-31T04:58:44;99655.00;;;22.50
20092;BMP180;10205;49.678;6.560;2023-07-31T05:01:12;99627.00;;;22.50
20092;BMP180;10205;49.678;6.560;2023-07-31T05:03:39;99646.00;;;22.60
20092;BMP180;10205;49.678;6.560;2023-07-31T05:06:07;99647.00;;;22.60
20092;BMP180;10205;49.678;6.560;2023-07-31T05:08:35;99651.00;;;22.50
20092;BMP180;10205;49.678;6.560;2023-07-31T05:11:03;99655.00;;;22.50
20092;BMP180;10205;49.678;6.560;2023-07-31T05:13:31;99642.00;;;22.50
20092;BMP180;10205;49.678;6.560;2023-07-31T05:15:58;99634.00;;;22.50
20092;BMP180;10205;49.678;6.560;2023-07-31T05:18:25;99654.00;;;22.30
20092;BMP180;10205;49.678;6.560;2023-07-31T05:20:53;99643.00;;;22.50
20092;BMP180;10205;49.678;6.560;2023-07-31T05:23:20;99631.00;;;22.50
20092;BMP180;10205;49.678;6.560;2023-07-31T05:25:49;99642.00;;;22.50
20092;BMP180;10205;49.678;6.560;2023-07-31T05:28:16;99635.00;;;22.40
20092;BMP180;10205;49.678;6.560;2023-07-31T05:30:45;99600.00;;;22.40
20092;BMP180;10205;49.678;6.560;2023-07-31T05:33:12;99647.00;;;22.40
20092;BMP180;10205;49.678;6.560;2023-07-31T05:35:40;99649.00;;;22.40
20092;BMP180;10205;49.678;6.560;2023-07-31T05:38:07;99653.00;;;22.40
20092;BMP180;10205;49.678;6.560;2023-07-31T05:40:34;99645.00;;;22.40
20092;BMP180;10205;49.678;6.560;2023-07-31T05:43:04;99615.00;;;22.40
20092;BMP180;10205;49.678;6.560;2023-07-31T05:45:32;99652.00;;;22.40
20092;BMP180;10205;49.678;6.560;2023-07-31T05:47:59;99654.00;;;22.40
20092;BMP180;10205;49.678;6.560;2023-07-31T05:50:27;99653.00;;;22.40
20092;BMP180;10205;49.678;6.560;2023-07-31T05:52:54;99657.00;;;22.40
20092;BMP180;10205;49.678;6.560;2023-07-31T05:55:22;99659.00;;;22.40
20092;BMP180;10205;49.678;6.560;2023-07-31T05:57:49;99655.00;;;22.40
20092;BMP180;10205;49.678;6.560;2023-07-31T06:00:19;99658.00;;;22.40
20092;BMP180;10205;49.678;6.560;2023-07-31T06:02:48;99628.00;;;22.40
20092;BMP180;10205;49.678;6.560;2023-07-31T06:05:16;99622.00;;;22.40
20092;BMP180;10205;49.678;6.560;2023-07-31T06:07:43;99628.00;;;22.30
20092;BMP180;10205;49.678;6.560;2023-07-31T06:10:11;99636.00;;;22.30
20092;BMP180;10205;49.678;6.560;2023-07-31T06:12:39;99646.00;;;22.30
20092;BMP180;10205;49.678;6.560;2023-07-31T06:15:07;99639.00;;;22.30
20092;BMP180;10205;49.678;6.560;2023-07-31T06:17:37;99629.00;;;22.30
20092;BMP180;10205;49.678;6.560;2023-07-31T06:20:08;99636.00;;;22.30
20092;BMP180;10205;49.678;6.560;2023-07-31T06:22:36;99588.00;;;22.30
20092;BMP180;10205;49.678;6.560;2023-07-31T06:25:06;99630.00;;;22.30
20092;BMP180;10205;49.678;6.560;2023-07-31T06:27:34;99622.00;;;22.30
20092;BMP180;10205;49.678;6.560;2023-07-31T06:30:01;99605.00;;;22.30
20092;BMP180;10205;49.678;6.560;2023-07-31T06:32:30;99619.00;;;22.30
20092;BMP180;10205;49.678;6.560;2023-07-31T06:34:59;99613.00;;;22.30
20092;BMP180;10205;49.678;6.560;2023-07-31T06:37:26;99605.00;;;22.40
20092;BMP180;10205;49.678;6.560;2023-07-31T06:39:54;99610.00;;;22.40
20092;BMP180;10205;49.678;6.560;2023-07-31T06:42:22;99583.00;;;22.40
20092;BMP180;10205;49.678;6.560;2023-07-31T06:44:49;99602.00;;;22.40
20092;BMP180;10205;49.678;6.560;2023-07-31T06:47:17;99607.00;;;22.50
20092;BMP180;10205;49.678;6.560;2023-07-31T06:49:45;99614.00;;;22.50
20092;BMP180;10205;49.678;6.560;2023-07-31T06:52:14;99599.00;;;22.50
20092;BMP180;10205;49.678;6.560;2023-07-31T06:54:41;99615.00;;;22.50
20092;BMP180;10205;49.678;6.560;2023-07-31T06:57:09;99612.00;;;22.60
20092;BMP180;10205;49.678;6.560;2023-07-31T06:59:36;99607.00;;;22.60
20092;BMP180;10205;49.678;6.560;2023-07-31T07:02:05;99604.00;;;22.60
20092;BMP180;10205;49.678;6.560;2023-07-31T07:04:32;99596.00;;;22.60
20092;BMP180;10205;49.678;6.560;2023-07-31T07:07:00;99600.00;;;22.60
20092;BMP180;10205;49.678;6.560;2023-07-31T07:09:29;99562.00;;;22.60
20092;BMP180;10205;49.678;6.560;2023-07-31T07:11:56;99598.00;;;22.60
20092;BMP180;10205;49.678;6.560;2023-07-31T07:14:24;99576.00;;;22.70
20092;BMP180;10205;49.678;6.560;2023-07-31T07:16:51;99565.00;;;22.70
20092;BMP180;10205;49.678;6.560;2023-07-31T07:19:19;99540.00;;;22.70
20092;BMP180;10205;49.678;6.560;2023-07-31T07:21:46;99595.00;;;22.70
20092;BMP180;10205;49.678;6.560;2023-07-31T07:24:14;99593.00;;;22.70
20092;BMP180;10205;49.678;6.560;2023-07-31T07:26:43;99602.00;;;22.80
20092;BMP180;10205;49.678;6.560;2023-07-31T07:29:10;99597.00;;;22.80
20092;BMP180;10205;49.678;6.560;2023-07-31T07:31:38;99546.00;;;22.80
20092;BMP180;10205;49.678;6.560;2023-07-31T07:34:05;99537.00;;;22.80
20092;BMP180;10205;49.678;6.560;2023-07-31T07:36:33;99534.00;;;22.90
20092;BMP180;10205;49.678;6.560;2023-07-31T07:39:01;99579.00;;;22.90
20092;BMP180;10205;49.678;6.560;2023-07-31T07:41:29;99521.00;;;22.90
20092;BMP180;10205;49.678;6.560;2023-07-31T07:43:58;99561.00;;;22.90
20092;BMP180;10205;49.678;6.560;2023-07-31T07:46:26;99564.00;;;23.00
20092;BMP180;10205;49.678;6.560;2023-07-31T07:48:53;99541.00;;;23.00
20092;BMP180;10205;49.678;6.560;2023-07-31T07:51:21;99576.00;;;23.00
20092;BMP180;10205;49.678;6.560;2023-07-31T07:53:49;99530.00;;;23.10
20092;BMP180;10205;49.678;6.560;2023-07-31T07:56:17;99573.00;;;23.10
20092;BMP180;10205;49.678;6.560;2023-07-31T07:58:44;99495.00;;;23.10
20092;BMP180;10205;49.678;6.560;2023-07-31T08:01:17;99556.00;;;23.20
20092;BMP180;10205;49.678;6.560;2023-07-31T08:03:44;99564.00;;;23.20
20092;BMP180;10205;49.678;6.560;2023-07-31T08:06:12;99572.00;;;23.30
20092;BMP180;10205;49.678;6.560;2023-07-31T08:08:40;99565.00;;;23.30
20092;BMP180;10205;49.678;6.560;2023-07-31T08:11:07;99557.00;;;23.40
20092;BMP180;10205;49.678;6.560;2023-07-31T08:13:35;99553.00;;;23.40
20092;BMP180;10205;49.678;6.560;2023-07-31T08:16:04;99555.00;;;23.40
20092;BMP180;10205;49.678;6.560;2023-07-31T08:18:33;99537.00;;;23.40
20092;BMP180;10205;49.678;6.560;2023-07-31T08:21:02;99531.00;;;23.40
20092;BMP180;10205;49.678;6.560;2023-07-31T08:23:30;99530.00;;;23.50
20092;BMP180;10205;49.678;6.560;2023-07-31T08:25:57;99512.00;;;23.50
20092;BMP180;10205;49.678;6.560;2023-07-31T08:28:25;99527.00;;;23.50
20092;BMP180;10205;49.678;6.560;2023-07-31T08:30:53;99514.00;;;23.50
20092;BMP180;10205;49.678;6.560;2023-07-31T08:33:20;99521.00;;;23.60
20092;BMP180;10205;49.678;6.560;2023-07-31T08:35:49;99530.00;;;23.60
20092;BMP180;10205;49.678;6.560;2023-07-31T08:38:17;99544.00;;;23.60
20092;BMP180;10205;49.678;6.560;2023-07-31T08:40:45;99537.00;;;23.70
20092;BMP180;10205;49.678;6.560;2023-07-31T08:43:14;99520.00;;;23.70
20092;BMP180;10205;49.678;6.560;2023-07-31T08:45:43;99529.00;;;23.80
20092;BMP180;10205;49.678;6.560;2023-07-31T08:48:12;99522.00;;;23.80
20092;BMP180;10205;49.678;6.560;2023-07-31T08:50:40;99534.00;;;23.80
20092;BMP180;10205;49.678;6.560;2023-07-31T08:53:09;99516.00;;;23.90
20092;BMP180;10205;49.678;6.560;2023-07-31T08:55:38;99531.00;;;23.90
20092;BMP180;10205;49.678;6.560;2023-07-31T08:58:06;99520.00;;;23.90
20092;BMP180;10205;49.678;6.560;2023-07-31T09:00:35;99521.00;;;24.00
20092;BMP180;10205;49.678;6.560;2023-07-31T09:03:09;99509.00;;;24.00
20092;BMP180;10205;49.678;6.560;2023-07-31T09:05:42;99532.00;;;24.00
20092;BMP180;10205;49.678;6.560;2023-07-31T09:08:13;99521.00;;;24.10
20092;BMP180;10205;49.678;6.560;2023-07-31T09:10:42;99523.00;;;24.10
20092;BMP180;10205;49.678;6.560;2023-07-31T09:13:12;99531.00;;;24.10
20092;BMP180;10205;49.678;6.560;2023-07-31T09:15:40;99521.00;;;24.20
20092;BMP180;10205;49.678;6.560;2023-07-31T09:18:11;99526.00;;;24.20
20092;BMP180;10205;49.678;6.560;2023-07-31T09:20:40;99525.00;;;24.20
20092;BMP180;10205;49.678;6.560;2023-07-31T09:23:11;99528.00;;;24.20
20092;BMP180;10205;49.678;6.560;2023-07-31T09:25:40;99522.00;;;24.30
20092;BMP180;10205;49.678;6.560;2023-07-31T09:28:11;99512.00;;;24.30
20092;BMP180;10205;49.678;6.560;2023-07-31T09:30:48;99517.00;;;24.30
20092;BMP180;10205;49.678;6.560;2023-07-31T09:33:18;99499.00;;;24.40
20092;BMP180;10205;49.678;6.560;2023-07-31T09:35:47;99507.00;;;24.40
20092;BMP180;10205;49.678;6.560;2023-07-31T09:38:17;99483.00;;;24.40
20092;BMP180;10205;49.678;6.560;2023-07-31T09:40:47;99504.00;;;24.40
20092;BMP180;10205;49.678;6.560;2023-07-31T09:43:21;99503.00;;;24.50
20092;BMP180;10205;49.678;6.560;2023-07-31T09:45:56;99498.00;;;24.50
20092;BMP180;10205;49.678;6.560;2023-07-31T09:48:24;99497.00;;;24.50
20092;BMP180;10205;49.678;6.560;2023-07-31T09:50:54;99490.00;;;24.50
20092;BMP180;10205;49.678;6.560;2023-07-31T09:53:28;99456.00;;;24.50
20092;BMP180;10205;49.678;6.560;2023-07-31T09:55:58;99474.00;;;24.60
20092;BMP180;10205;49.678;6.560;2023-07-31T09:58:29;99487.00;;;24.60
20092;BMP180;10205;49.678;6.560;2023-07-31T10:00:59;99500.00;;;24.60
20092;BMP180;10205;49.678;6.560;2023-07-31T10:03:29;99500.00;;;24.70
20092;BMP180;10205;49.678;6.560;2023-07-31T10:05:59;99501.00;;;24.70
20092;BMP180;10205;49.678;6.560;2023-07-31T10:08:35;99510.00;;;24.70
20092;BMP180;10205;49.678;6.560;2023-07-31T10:11:05;99496.00;;;24.70
20092;BMP180;10205;49.678;6.560;2023-07-31T10:13:35;99506.00;;;24.80
20092;BMP180;10205;49.678;6.560;2023-07-31T10:16:04;99511.00;;;24.80
20092;BMP180;10205;49.678;6.560;2023-07-31T10:18:33;99512.00;;;24.80
20092;BMP180;10205;49.678;6.560;2023-07-31T10:21:02;99451.00;;;24.80
20092;BMP180;10205;49.678;6.560;2023-07-31T10:23:32;99517.00;;;24.90
20092;BMP180;10205;49.678;6.560;2023-07-31T10:26:01;99514.00;;;24.90
20092;BMP180;10205;49.678;6.560;2023-07-31T10:28:34;99492.00;;;24.90
20092;BMP180;10205;49.678;6.560;2023-07-31T10:31:05;99516.00;;;24.90
20092;BMP180;10205;49.678;6.560;2023-07-31T10:33:33;99516.00;;;24.90
20092;BMP180;10205;49.678;6.560;2023-07-31T10:36:14;99510.00;;;24.90
20092;BMP180;10205;49.678;6.560;2023-07-31T10:38:46;99487.00;;;24.90
20092;BMP180;10205;49.678;6.560;2023-07-31T10:41:15;99522.00;;;25.00
20092;BMP180;10205;49.678;6.560;2023-07-31T10:43:45;99520.00;;;25.00
20092;BMP180;10205;49.678;6.560;2023-07-31T10:46:14;99521.00;;;25.00
20092;BMP180;10205;49.678;6.560;2023-07-31T10:48:42;99517.00;;;25.10
20092;BMP180;10205;49.678;6.560;2023-07-31T10:51:11;99481.00;;;25.10
20092;BMP180;10205;49.678;6.560;2023-07-31T10:53:40;99519.00;;;25.10
20092;BMP180;10205;49.678;6.560;2023-07-31T10:56:10;99529.00;;;25.10
20092;BMP180;10205;49.678;6.560;2023-07-31T10:58:40;99498.00;;;25.10
20092;BMP180;10205;49.678;6.560;2023-07-31T11:01:10;99514.00;;;25.10
20092;BMP180;10205;49.678;6.560;2023-07-31T11:03:42;99522.00;;;25.10
20092;BMP180;10205;49.678;6.560;2023-07-31T11:06:11;99522.00;;;25.10
20092;BMP180;10205;49.678;6.560;2023-07-31T11:08:44;99519.00;;;25.20
20092;BMP180;10205;49.678;6.560;2023-07-31T11:11:16;99495.00;;;25.20
20092;BMP180;10205;49.678;6.560;2023-07-31T11:13:46;99512.00;;;25.20
20092;BMP180;10205;49.678;6.560;2023-07-31T11:16:19;99501.00;;;25.20
20092;BMP180;10205;49.678;6.560;2023-07-31T11:18:49;99512.00;;;25.30
20092;BMP180;10205;49.678;6.560;2023-07-31T11:21:19;99516.00;;;25.30
20092;BMP180;10205;49.678;6.560;2023-07-31T11:23:48;99515.00;;;25.30
20092;BMP180;10205;49.678;6.560;2023-07-31T11:26:19;99504.00;;;25.30
20092;BMP180;10205;49.678;6.560;2023-07-31T11:28:48;99512.00;;;25.40
20092;BMP180;10205;49.678;6.560;2023-07-31T11:31:18;99500.00;;;25.30
20092;BMP180;10205;49.678;6.560;2023-07-31T11:33:46;99516.00;;;25.30
20092;BMP180;10205;49.678;6.560;2023-07-31T11:36:19;99490.00;;;25.30
20092;BMP180;10205;49.678;6.560;2023-07-31T11:38:47;99503.00;;;25.30
20092;BMP180;10205;49.678;6.560;2023-07-31T11:41:18;99501.00;;;25.30
20092;BMP180;10205;49.678;6.560;2023-07-31T11:43:47;99495.00;;;25.30
20092;BMP180;10205;49.678;6.560;2023-07-31T11:46:15;99494.00;;;25.30
20092;BMP180;10205;49.678;6.560;2023-07-31T11:48:44;99493.00;;;25.30
20092;BMP180;10205;49.678;6.560;2023-07-31T11:51:13;99497.00;;;25.30
20092;BMP180;10205;49.678;6.560;2023-07-31T11:53:44;99490.00;;;25.40
20092;BMP180;10205;49.678;6.560;2023-07-31T11:56:18;99485.00;;;25.40
20092;BMP180;10205;49.678;6.560;2023-07-31T11:58:50;99469.00;;;25.40
20092;BMP180;10205;49.678;6.560;2023-07-31T12:01:21;99480.00;;;25.40
20092;BMP180;10205;49.678;6.560;2023-07-31T12:03:50;99477.00;;;25.40
20092;BMP180;10205;49.678;6.560;2023-07-31T12:06:18;99485.00;;;25.40
20092;BMP180;10205;49.678;6.560;2023-07-31T12:08:47;99488.00;;;25.40
20092;BMP180;10205;49.678;6.560;2023-07-31T12:11:15;99499.00;;;25.40
20092;BMP180;10205;49.678;6.560;2023-07-31T12:13:45;99440.00;;;25.40
20092;BMP180;10205;49.678;6.560;2023-07-31T12:16:13;99498.00;;;25.40
20092;BMP180;10205;49.678;6.560;2023-07-31T12:18:40;99445.00;;;25.40
20092;BMP180;10205;49.678;6.560;2023-07-31T12:21:09;99462.00;;;25.40
20092;BMP180;10205;49.678;6.560;2023-07-31T12:23:38;99515.00;;;25.30
20092;BMP180;10205;49.678;6.560;2023-07-31T12:26:11;99476.00;;;25.40
20092;BMP180;10205;49.678;6.560;2023-07-31T12:28:41;99498.00;;;25.40
20092;BMP180;10205;49.678;6.560;2023-07-31T12:31:13;99505.00;;;25.30
20092;BMP180;10205;49.678;6.560;2023-07-31T12:33:41;99518.00;;;25.40
20092;BMP180;10205;49.678;6.560;2023-07-31T12:36:12;99524.00;;;25.30
20092;BMP180;10205;49.678;6.560;2023-07-31T12:38:40;99511.00;;;25.30
20092;BMP180;10205;49.678;6.560;2023-07-31T12:41:08;99525.00;;;25.30
20092;BMP180;10205;49.678;6.560;2023-07-31T12:43:36;99516.00;;;25.30
20092;BMP180;10205;49.678;6.560;2023-07-31T12:46:04;99509.00;;;25.30
20092;BMP180;10205;49.678;6.560;2023-07-31T12:48:35;99516.00;;;25.30
20092;BMP180;10205;49.678;6.560;2023-07-31T12:51:04;99513.00;;;25.30
20092;BMP180;10205;49.678;6.560;2023-07-31T12:53:32;99510.00;;;25.30
20092;BMP180;10205;49.678;6.560;2023-07-31T12:56:00;99510.00;;;25.20
20092;BMP180;10205;49.678;6.560;2023-07-31T12:58:29;99491.00;;;25.30
20092;BMP180;10205;49.678;6.560;2023-07-31T13:00:57;99489.00;;;25.30
20092;BMP180;10205;49.678;6.560;2023-07-31T13:03:24;99469.00;;;25.30
20092;BMP180;10205;49.678;6.560;2023-07-31T13:05:54;99465.00;;;25.30
20092;BMP180;10205;49.678;6.560;2023-07-31T13:08:22;99421.00;;;25.30
20092;BMP180;10205;49.678;6.560;2023-07-31T13:10:50;99453.00;;;25.30
20092;BMP180;10205;49.678;6.560;2023-07-31T13:13:17;99452.00;;;25.30
20092;BMP180;10205;49.678;6.560;2023-07-31T13:15:45;99454.00;;;25.30
20092;BMP180;10205;49.678;6.560;2023-07-31T13:18:12;99453.00;;;25.30
20092;BMP180;10205;49.678;6.560;2023-07-31T13:20:39;99449.00;;;25.30
20092;BMP180;10205;49.678;6.560;2023-07-31T13:23:09;99447.00;;;25.30
20092;BMP180;10205;49.678;6.560;2023-07-31T13:25:36;99391.00;;;25.30
20092;BMP180;10205;49.678;6.560;2023-07-31T13:28:04;99433.00;;;25.30
20092;BMP180;10205;49.678;6.560;2023-07-31T13:30:32;99422.00;;;25.40
20092;BMP180;10205;49.678;6.560;2023-07-31T13:32:59;99414.00;;;25.40
20092;BMP180;10205;49.678;6.560;2023-07-31T13:35:27;99407.00;;;25.40
20092;BMP180;10205;49.678;6.560;2023-07-31T13:37:56;99404.00;;;25.40
20092;BMP180;10205;49.678;6.560;2023-07-31T13:40:26;99386.00;;;25.40
20092;BMP180;10205;49.678;6.560;2023-07-31T13:42:54;99378.00;;;25.50
20092;BMP180;10205;49.678;6.560;2023-07-31T13:45:21;99382.00;;;25.50
20092;BMP180;10205;49.678;6.560;2023-07-31T13:47:50;99366.00;;;25.50
20092;BMP180;10205;49.678;6.560;2023-07-31T13:50:18;99364.00;;;25.50
20092;BMP180;10205;49.678;6.560;2023-07-31T13:52:47;99373.00;;;25.50
20092;BMP180;10205;49.678;6.560;2023-07-31T13:55:15;99358.00;;;25.50
20092;BMP180;10205;49.678;6.560;2023-07-31T13:57:44;99368.00;;;25.50
20092;BMP180;10205;49.678;6.560;2023-07-31T14:00:13;99356.00;;;25.50
20092;BMP180;10205;49.678;6.560;2023-07-31T14:02:41;99362.00;;;25.50
20092;BMP180;10205;49.678;6.560;2023-07-31T14:05:09;99370.00;;;25.50
20092;BMP180;10205;49.678;6.560;2023-07-31T14:07:37;99365.00;;;25.50
20092;BMP180;10205;49.678;6.560;2023-07-31T14:10:05;99359.00;;;25.50
20092;BMP180;10205;49.678;6.560;2023-07-31T14:12:33;99336.00;;;25.60
20092;BMP180;10205;49.678;6.560;2023-07-31T14:15:02;99361.00;;;25.60
20092;BMP180;10205;49.678;6.560;2023-07-31T14:17:30;99356.00;;;25.50
20092;BMP180;10205;49.678;6.560;2023-07-31T14:19:57;99359.00;;;25.60